sensor_id;sensor_type;location;lat;lon;timestamp;P1;durP1;ratioP1;P2;durP2;ratioP2
2326;SDS011;1174;51.588;7.328;2023-04-06T00:01:37;5.53;;;4.60;;
2326;SDS011;1174;51.588;7.328;2023-04-06T00:04:07;7.63;;;3.83;;
2326;SDS011;1174;51.588;7.328;2023-04-06T00:06:35;8.07;;;4.70;;
2326;SDS011;1174;51.588;7.328;2023-04-06T00:09:03;6.43;;;4.03;;
2326;SDS011;1174;51.588;7.328;2023-04-06T00:11:30;7.27;;;4.10;;
2326;SDS011;1174;51.588;7.328;2023-04-06T00:13:58;14.03;;;4.23;;
2326;SDS011;1174;51.588;7.328;2023-04-06T00:16:25;8.30;;;3.60;;
2326;SDS011;1174;51.588;7.328;2023-04-06T00:18:52;6.43;;;4.00;;
2326;SDS011;1174;51.588;7.328;2023-04-06T00:21:19;8.87;;;4.90;;
2326;SDS011;1174;51.588;7.328;2023-04-06T00:23:50;7.77;;;3.80;;
2326;SDS011;1174;51.588;7.328;2023-04-06T00:26:17;10.03;;;3.77;;
2326;SDS011;1174;51.588;7.328;2023-04-06T00:28:45;4.23;;;3.83;;
2326;SDS011;1174;51.588;7.328;2023-04-06T00:31:12;9.27;;;4.40;;
2326;SDS011;1174;51.588;7.328;2023-04-06T00:33:40;7.57;;;3.87;;
2326;SDS011;1174;51.588;7.328;2023-04-06T00:36:07;4.40;;;3.03;;
2326;SDS011;1174;51.588;7.328;2023-04-06T00:38:34;10.77;;;5.20;;
2326;SDS011;1174;51.588;7.328;2023-04-06T00:41:05;6.40;;;3.97;;
2326;SDS011;1174;51.588;7.328;2023-04-06T00:43:32;5.93;;;4.27;;
2326;SDS011;1174;51.588;7.328;2023-04-06T00:45:59;4.53;;;3.93;;
2326;SDS011;1174;51.588;7.328;2023-04-06T00:48:26;9.07;;;4.50;;
2326;SDS011;1174;51.588;7.328;2023-04-06T00:50:56;10.27;;;4.60;;
2326;SDS011;1174;51.588;7.328;2023-04-06T00:53:24;9.90;;;4.30;;
2326;SDS011;1174;51.588;7.328;2023-04-06T00:55:52;5.73;;;3.23;;
2326;SDS011;1174;51.588;7.328;2023-04-06T00:58:21;9.80;;;5.13;;
2326;SDS011;1174;51.588;7.328;2023-04-06T01:00:48;9.20;;;5.50;;
2326;SDS011;1174;51.588;7.328;2023-04-06T01:03:16;9.03;;;5.77;;
2326;SDS011;1174;51.588;7.328;2023-04-06T01:05:43;7.27;;;4.33;;
2326;SDS011;1174;51.588;7.328;2023-04-06T01:08:10;6.10;;;4.63;;
2326;SDS011;1174;51.588;7.328;2023-04-06T01:10:37;6.37;;;4.07;;
2326;SDS011;1174;51.588;7.328;2023-04-06T01:13:06;4.67;;;4.20;;
2326;SDS011;1174;51.588;7.328;2023-04-06T01:15:35;10.30;;;5.70;;
2326;SDS011;1174;51.588;7.328;2023-04-06T01:18:04;6.87;;;4.83;;
2326;SDS011;1174;51.588;7.328;2023-04-06T01:20:36;6.63;;;4.10;;
2326;SDS011;1174;51.588;7.328;2023-04-06T01:23:05;7.20;;;4.60;;
2326;SDS011;1174;51.588;7.328;2023-04-06T01:25:32;10.40;;;4.77;;
2326;SDS011;1174;51.588;7.328;2023-04-06T01:27:59;6.50;;;3.77;;
2326;SDS011;1174;51.588;7.328;2023-04-06T01:30:26;13.83;;;5.17;;
2326;SDS011;1174;51.588;7.328;2023-04-06T01:32:54;11.13;;;5.40;;
2326;SDS011;1174;51.588;7.328;2023-04-06T01:35:25;7.87;;;4.83;;
2326;SDS011;1174;51.588;7.328;2023-04-06T01:37:53;6.73;;;3.90;;
2326;SDS011;1174;51.588;7.328;2023-04-06T01:40:22;3.93;;;3.40;;
2326;SDS011;1174;51.588;7.328;2023-04-06T01:42:50;5.43;;;4.20;;
2326;SDS011;1174;51.588;7.328;2023-04-06T01:45:17;14.83;;;5.73;;
2326;SDS011;1174;51.588;7.328;2023-04-06T01:47:45;6.10;;;4.17;;
2326;SDS011;1174;51.588;7.328;2023-04-06T01:50:12;8.20;;;3.70;;
2326;SDS011;1174;51.588;7.328;2023-04-06T01:52:39;4.63;;;4.00;;
2326;SDS011;1174;51.588;7.328;2023-04-06T01:55:06;8.40;;;4.30;;
2326;SDS011;1174;51.588;7.328;2023-04-06T01:57:35;20.87;;;4.27;;
2326;SDS011;1174;51.588;7.328;2023-04-06T02:00:02;7.00;;;4.27;;
2326;SDS011;1174;51.588;7.328;2023-04-06T02:02:29;6.63;;;4.63;;
2326;SDS011;1174;51.588;7.328;2023-04-06T02:04:57;6.90;;;3.50;;
2326;SDS011;1174;51.588;7.328;2023-04-06T02:07:25;5.83;;;5.20;;
2326;SDS011;1174;51.588;7.328;2023-04-06T02:09:53;7.63;;;3.70;;
2326;SDS011;1174;51.588;7.328;2023-04-06T02:12:22;6.87;;;6.20;;
2326;SDS011;1174;51.588;7.328;2023-04-06T02:14:51;11.60;;;4.73;;
2326;SDS011;1174;51.588;7.328;2023-04-06T02:17:18;8.13;;;4.10;;
2326;SDS011;1174;51.588;7.328;2023-04-06T02:19:46;9.77;;;5.20;;
2326;SDS011;1174;51.588;7.328;2023-04-06T02:22:13;6.90;;;6.10;;
2326;SDS011;1174;51.588;7.328;2023-04-06T02:24:40;6.10;;;4.90;;
2326;SDS011;1174;51.588;7.328;2023-04-06T02:27:07;11.43;;;5.83;;
2326;SDS011;1174;51.588;7.328;2023-04-06T02:29:35;5.87;;;3.77;;
2326;SDS011;1174;51.588;7.328;2023-04-06T02:32:04;8.13;;;5.50;;
2326;SDS011;1174;51.588;7.328;2023-04-06T02:34:33;18.20;;;5.90;;
2326;SDS011;1174;51.588;7.328;2023-04-06T02:37:00;12.40;;;7.17;;
2326;SDS011;1174;51.588;7.328;2023-04-06T02:39:27;5.70;;;4.30;;
2326;SDS011;1174;51.588;7.328;2023-04-06T02:41:55;5.10;;;3.73;;
2326;SDS011;1174;51.588;7.328;2023-04-06T02:44:25;7.10;;;5.13;;
2326;SDS011;1174;51.588;7.328;2023-04-06T02:46:52;10.60;;;5.50;;
2326;SDS011;1174;51.588;7.328;2023-04-06T02:49:21;6.47;;;3.93;;
2326;SDS011;1174;51.588;7.328;2023-04-06T02:51:48;10.83;;;6.30;;
2326;SDS011;1174;51.588;7.328;2023-04-06T02:54:15;18.50;;;7.00;;
2326;SDS011;1174;51.588;7.328;2023-04-06T02:56:46;9.57;;;6.67;;
2326;SDS011;1174;51.588;7.328;2023-04-06T02:59:13;10.70;;;5.63;;
2326;SDS011;1174;51.588;7.328;2023-04-06T03:01:42;19.07;;;5.70;;
2326;SDS011;1174;51.588;7.328;2023-04-06T03:04:11;12.83;;;6.57;;
2326;SDS011;1174;51.588;7.328;2023-04-06T03:06:39;10.07;;;4.10;;
2326;SDS011;1174;51.588;7.328;2023-04-06T03:09:07;7.43;;;5.40;;
2326;SDS011;1174;51.588;7.328;2023-04-06T03:11:34;7.43;;;4.83;;
2326;SDS011;1174;51.588;7.328;2023-04-06T03:14:01;9.70;;;5.97;;
2326;SDS011;1174;51.588;7.328;2023-04-06T03:16:28;13.10;;;6.53;;
2326;SDS011;1174;51.588;7.328;2023-04-06T03:18:56;10.47;;;5.53;;
2326;SDS011;1174;51.588;7.328;2023-04-06T03:21:23;7.60;;;4.87;;
2326;SDS011;1174;51.588;7.328;2023-04-06T03:23:51;11.17;;;5.77;;
2326;SDS011;1174;51.588;7.328;2023-04-06T03:26:18;14.23;;;8.53;;
2326;SDS011;1174;51.588;7.328;2023-04-06T03:28:47;9.60;;;4.40;;
2326;SDS011;1174;51.588;7.328;2023-04-06T03:31:17;7.00;;;4.13;;
2326;SDS011;1174;51.588;7.328;2023-04-06T03:33:44;9.13;;;5.13;;
2326;SDS011;1174;51.588;7.328;2023-04-06T03:36:11;6.57;;;4.20;;
2326;SDS011;1174;51.588;7.328;2023-04-06T03:38:39;5.23;;;4.00;;
2326;SDS011;1174;51.588;7.328;2023-04-06T03:41:08;16.90;;;5.73;;
2326;SDS011;1174;51.588;7.328;2023-04-06T03:43:35;5.53;;;4.20;;
2326;SDS011;1174;51.588;7.328;2023-04-06T03:46:02;6.13;;;4.53;;
2326;SDS011;1174;51.588;7.328;2023-04-06T03:48:29;6.73;;;3.80;;
2326;SDS011;1174;51.588;7.328;2023-04-06T03:50:57;16.43;;;5.27;;
2326;SDS011;1174;51.588;7.328;2023-04-06T03:53:25;8.23;;;6.30;;
2326;SDS011;1174;51.588;7.328;2023-04-06T03:55:55;4.40;;;3.70;;
2326;SDS011;1174;51.588;7.328;2023-04-06T03:58:25;11.30;;;4.63;;
2326;SDS011;1174;51.588;7.328;2023-04-06T04:00:52;10.83;;;5.53;;
2326;SDS011;1174;51.588;7.328;2023-04-06T04:03:19;6.60;;;5.73;;
2326;SDS011;1174;51.588;7.328;2023-04-06T04:05:48;3.60;;;3.23;;
2326;SDS011;1174;51.588;7.328;2023-04-06T04:08:16;8.60;;;4.20;;
2326;SDS011;1174;51.588;7.328;2023-04-06T04:10:43;6.70;;;3.90;;
2326;SDS011;1174;51.588;7.328;2023-04-06T04:13:12;17.70;;;4.57;;
2326;SDS011;1174;51.588;7.328;2023-04-06T04:15:42;17.47;;;4.87;;
2326;SDS011;1174;51.588;7.328;2023-04-06T04:18:09;10.30;;;4.33;;
2326;SDS011;1174;51.588;7.328;2023-04-06T04:20:36;10.37;;;5.67;;
2326;SDS011;1174;51.588;7.328;2023-04-06T04:23:04;7.80;;;4.73;;
2326;SDS011;1174;51.588;7.328;2023-04-06T04:25:34;6.60;;;4.90;;
2326;SDS011;1174;51.588;7.328;2023-04-06T04:28:02;9.10;;;4.93;;
2326;SDS011;1174;51.588;7.328;2023-04-06T04:30:29;11.20;;;5.50;;
2326;SDS011;1174;51.588;7.328;2023-04-06T04:32:58;9.90;;;6.00;;
2326;SDS011;1174;51.588;7.328;2023-04-06T04:35:26;8.07;;;5.00;;
2326;SDS011;1174;51.588;7.328;2023-04-06T04:37:53;12.73;;;3.80;;
2326;SDS011;1174;51.588;7.328;2023-04-06T04:40:23;14.13;;;4.87;;
2326;SDS011;1174;51.588;7.328;2023-04-06T04:42:50;12.90;;;5.97;;
2326;SDS011;1174;51.588;7.328;2023-04-06T04:45:17;9.23;;;5.13;;
2326;SDS011;1174;51.588;7.328;2023-04-06T04:47:46;6.20;;;5.53;;
2326;SDS011;1174;51.588;7.328;2023-04-06T04:50:15;6.80;;;4.13;;
2326;SDS011;1174;51.588;7.328;2023-04-06T04:52:42;7.60;;;4.57;;
2326;SDS011;1174;51.588;7.328;2023-04-06T04:55:09;7.77;;;6.40;;
2326;SDS011;1174;51.588;7.328;2023-04-06T04:57:36;19.23;;;7.07;;
2326;SDS011;1174;51.588;7.328;2023-04-06T05:00:03;5.23;;;4.17;;
2326;SDS011;1174;51.588;7.328;2023-04-06T05:02:31;6.50;;;6.00;;
2326;SDS011;1174;51.588;7.328;2023-04-06T05:04:58;11.97;;;5.67;;
2326;SDS011;1174;51.588;7.328;2023-04-06T05:07:27;19.70;;;4.17;;
2326;SDS011;1174;51.588;7.328;2023-04-06T05:09:54;10.93;;;5.20;;
2326;SDS011;1174;51.588;7.328;2023-04-06T05:12:21;14.60;;;5.53;;
2326;SDS011;1174;51.588;7.328;2023-04-06T05:14:50;5.30;;;3.67;;
2326;SDS011;1174;51.588;7.328;2023-04-06T05:17:17;7.50;;;4.60;;
2326;SDS011;1174;51.588;7.328;2023-04-06T05:19:44;16.80;;;5.80;;
2326;SDS011;1174;51.588;7.328;2023-04-06T05:22:11;5.93;;;4.70;;
2326;SDS011;1174;51.588;7.328;2023-04-06T05:24:42;7.53;;;5.10;;
2326;SDS011;1174;51.588;7.328;2023-04-06T05:27:09;14.80;;;5.83;;
2326;SDS011;1174;51.588;7.328;2023-04-06T05:29:36;16.93;;;4.63;;
2326;SDS011;1174;51.588;7.328;2023-04-06T05:32:04;9.40;;;6.00;;
2326;SDS011;1174;51.588;7.328;2023-04-06T05:34:33;7.77;;;4.37;;
2326;SDS011;1174;51.588;7.328;2023-04-06T05:37:00;14.60;;;5.97;;
2326;SDS011;1174;51.588;7.328;2023-04-06T05:39:28;8.37;;;4.77;;
2326;SDS011;1174;51.588;7.328;2023-04-06T05:41:57;13.63;;;5.87;;
2326;SDS011;1174;51.588;7.328;2023-04-06T05:44:25;25.60;;;7.07;;
2326;SDS011;1174;51.588;7.328;2023-04-06T05:46:52;7.07;;;6.03;;
2326;SDS011;1174;51.588;7.328;2023-04-06T05:49:19;10.33;;;4.60;;
2326;SDS011;1174;51.588;7.328;2023-04-06T05:51:46;8.90;;;4.67;;
2326;SDS011;1174;51.588;7.328;2023-04-06T05:54:13;6.90;;;5.50;;
2326;SDS011;1174;51.588;7.328;2023-04-06T05:56:40;12.70;;;6.20;;
2326;SDS011;1174;51.588;7.328;2023-04-06T05:59:10;22.50;;;5.50;;
2326;SDS011;1174;51.588;7.328;2023-04-06T06:01:38;10.57;;;4.30;;
2326;SDS011;1174;51.588;7.328;2023-04-06T06:04:05;11.30;;;6.37;;
2326;SDS011;1174;51.588;7.328;2023-04-06T06:06:33;20.33;;;6.00;;
2326;SDS011;1174;51.588;7.328;2023-04-06T06:09:03;14.60;;;8.07;;
2326;SDS011;1174;51.588;7.328;2023-04-06T06:11:31;19.47;;;5.50;;
2326;SDS011;1174;51.588;7.328;2023-04-06T06:14:00;14.18;;;5.65;;
2326;SDS011;1174;51.588;7.328;2023-04-06T06:16:28;14.32;;;7.90;;
2326;SDS011;1174;51.588;7.328;2023-04-06T06:18:55;15.63;;;7.07;;
2326;SDS011;1174;51.588;7.328;2023-04-06T06:21:27;12.60;;;6.47;;
2326;SDS011;1174;51.588;7.328;2023-04-06T06:23:54;16.35;;;8.95;;
2326;SDS011;1174;51.588;7.328;2023-04-06T06:26:21;17.30;;;9.70;;
2326;SDS011;1174;51.588;7.328;2023-04-06T06:28:51;18.33;;;9.70;;
2326;SDS011;1174;51.588;7.328;2023-04-06T06:31:18;14.43;;;9.07;;
2326;SDS011;1174;51.588;7.328;2023-04-06T06:33:47;9.70;;;7.10;;
2326;SDS011;1174;51.588;7.328;2023-04-06T06:36:15;12.40;;;8.03;;
2326;SDS011;1174;51.588;7.328;2023-04-06T06:38:45;10.50;;;7.77;;
2326;SDS011;1174;51.588;7.328;2023-04-06T06:41:22;15.97;;;6.90;;
2326;SDS011;1174;51.588;7.328;2023-04-06T06:43:49;8.93;;;5.70;;
2326;SDS011;1174;51.588;7.328;2023-04-06T06:46:16;14.27;;;7.00;;
2326;SDS011;1174;51.588;7.328;2023-04-06T06:48:43;9.53;;;5.77;;
2326;SDS011;1174;51.588;7.328;2023-04-06T06:51:11;8.70;;;5.80;;
2326;SDS011;1174;51.588;7.328;2023-04-06T06:53:39;7.60;;;5.53;;
2326;SDS011;1174;51.588;7.328;2023-04-06T06:56:07;11.10;;;7.30;;
2326;SDS011;1174;51.588;7.328;2023-04-06T06:58:34;11.83;;;7.40;;
2326;SDS011;1174;51.588;7.328;2023-04-06T07:01:01;17.60;;;6.17;;
2326;SDS011;1174;51.588;7.328;2023-04-06T07:03:30;7.03;;;5.20;;
2326;SDS011;1174;51.588;7.328;2023-04-06T07:05:57;8.73;;;5.23;;
2326;SDS011;1174;51.588;7.328;2023-04-06T07:08:25;8.30;;;5.33;;
2326;SDS011;1174;51.588;7.328;2023-04-06T07:10:52;23.47;;;6.87;;
2326;SDS011;1174;51.588;7.328;2023-04-06T07:13:21;8.33;;;4.47;;
2326;SDS011;1174;51.588;7.328;2023-04-06T07:15:49;12.53;;;6.27;;
2326;SDS011;1174;51.588;7.328;2023-04-06T07:18:16;8.57;;;4.57;;
2326;SDS011;1174;51.588;7.328;2023-04-06T07:20:47;7.20;;;4.67;;
2326;SDS011;1174;51.588;7.328;2023-04-06T07:23:14;7.23;;;6.40;;
2326;SDS011;1174;51.588;7.328;2023-04-06T07:25:43;5.63;;;4.30;;
2326;SDS011;1174;51.588;7.328;2023-04-06T07:28:10;6.47;;;4.47;;
2326;SDS011;1174;51.588;7.328;2023-04-06T07:30:38;5.70;;;4.30;;
2326;SDS011;1174;51.588;7.328;2023-04-06T07:33:05;8.87;;;6.07;;
2326;SDS011;1174;51.588;7.328;2023-04-06T07:35:35;16.60;;;5.60;;
2326;SDS011;1174;51.588;7.328;2023-04-06T07:38:02;6.80;;;4.37;;
2326;SDS011;1174;51.588;7.328;2023-04-06T07:40:29;21.83;;;4.70;;
2326;SDS011;1174;51.588;7.328;2023-04-06T07:42:59;14.63;;;6.33;;
2326;SDS011;1174;51.588;7.328;2023-04-06T07:45:27;5.87;;;4.50;;
2326;SDS011;1174;51.588;7.328;2023-04-06T07:47:54;6.37;;;5.53;;
2326;SDS011;1174;51.588;7.328;2023-04-06T07:50:21;6.60;;;5.07;;
2326;SDS011;1174;51.588;7.328;2023-04-06T07:52:49;6.60;;;3.83;;
2326;SDS011;1174;51.588;7.328;2023-04-06T07:55:16;12.20;;;4.70;;
2326;SDS011;1174;51.588;7.328;2023-04-06T07:57:43;7.83;;;5.27;;
2326;SDS011;1174;51.588;7.328;2023-04-06T08:00:12;6.30;;;4.83;;
2326;SDS011;1174;51.588;7.328;2023-04-06T08:02:40;6.27;;;4.53;;
2326;SDS011;1174;51.588;7.328;2023-04-06T08:05:07;5.77;;;5.00;;
2326;SDS011;1174;51.588;7.328;2023-04-06T08:07:35;11.93;;;5.40;;
2326;SDS011;1174;51.588;7.328;2023-04-06T08:10:02;8.20;;;5.70;;
2326;SDS011;1174;51.588;7.328;2023-04-06T08:12:31;11.93;;;5.10;;
2326;SDS011;1174;51.588;7.328;2023-04-06T08:14:59;13.70;;;5.33;;
2326;SDS011;1174;51.588;7.328;2023-04-06T08:17:30;7.33;;;4.53;;
2326;SDS011;1174;51.588;7.328;2023-04-06T08:19:59;14.40;;;6.30;;
2326;SDS011;1174;51.588;7.328;2023-04-06T08:22:28;8.73;;;5.13;;
2326;SDS011;1174;51.588;7.328;2023-04-06T08:24:56;6.47;;;5.57;;
2326;SDS011;1174;51.588;7.328;2023-04-06T08:27:23;8.90;;;5.97;;
2326;SDS011;1174;51.588;7.328;2023-04-06T08:29:51;8.53;;;5.47;;
2326;SDS011;1174;51.588;7.328;2023-04-06T08:32:18;10.90;;;5.83;;
2326;SDS011;1174;51.588;7.328;2023-04-06T08:34:46;9.50;;;5.77;;
2326;SDS011;1174;51.588;7.328;2023-04-06T08:37:14;11.47;;;6.30;;
2326;SDS011;1174;51.588;7.328;2023-04-06T08:39:41;8.30;;;6.30;;
2326;SDS011;1174;51.588;7.328;2023-04-06T08:42:10;11.40;;;6.83;;
2326;SDS011;1174;51.588;7.328;2023-04-06T08:44:42;7.97;;;7.10;;
2326;SDS011;1174;51.588;7.328;2023-04-06T08:47:10;9.10;;;6.93;;
2326;SDS011;1174;51.588;7.328;2023-04-06T08:49:38;12.20;;;7.03;;
2326;SDS011;1174;51.588;7.328;2023-04-06T08:52:08;9.30;;;6.70;;
2326;SDS011;1174;51.588;7.328;2023-04-06T08:54:37;20.77;;;7.07;;
2326;SDS011;1174;51.588;7.328;2023-04-06T08:57:04;7.23;;;5.67;;
2326;SDS011;1174;51.588;7.328;2023-04-06T08:59:32;9.43;;;6.93;;
2326;SDS011;1174;51.588;7.328;2023-04-06T09:02:00;13.30;;;7.70;;
2326;SDS011;1174;51.588;7.328;2023-04-06T09:04:31;12.50;;;8.77;;
2326;SDS011;1174;51.588;7.328;2023-04-06T09:07:00;14.77;;;7.83;;
2326;SDS011;1174;51.588;7.328;2023-04-06T09:09:29;13.00;;;8.77;;
2326;SDS011;1174;51.588;7.328;2023-04-06T09:11:56;12.30;;;9.57;;
2326;SDS011;1174;51.588;7.328;2023-04-06T09:14:34;11.83;;;10.00;;
2326;SDS011;1174;51.588;7.328;2023-04-06T09:17:03;9.63;;;8.47;;
2326;SDS011;1174;51.588;7.328;2023-04-06T09:19:31;10.97;;;8.00;;
2326;SDS011;1174;51.588;7.328;2023-04-06T09:22:03;11.07;;;8.07;;
2326;SDS011;1174;51.588;7.328;2023-04-06T09:24:43;15.80;;;8.97;;
2326;SDS011;1174;51.588;7.328;2023-04-06T09:27:11;11.40;;;7.70;;
2326;SDS011;1174;51.588;7.328;2023-04-06T09:29:39;9.83;;;7.93;;
2326;SDS011;1174;51.588;7.328;2023-04-06T09:32:07;13.50;;;8.73;;
2326;SDS011;1174;51.588;7.328;2023-04-06T09:34:36;15.80;;;8.37;;
2326;SDS011;1174;51.588;7.328;2023-04-06T09:37:14;12.83;;;8.43;;
2326;SDS011;1174;51.588;7.328;2023-04-06T09:39:43;12.07;;;7.63;;
2326;SDS011;1174;51.588;7.328;2023-04-06T09:42:12;11.50;;;8.17;;
2326;SDS011;1174;51.588;7.328;2023-04-06T09:44:52;10.13;;;7.23;;
2326;SDS011;1174;51.588;7.328;2023-04-06T09:47:19;11.47;;;8.17;;
2326;SDS011;1174;51.588;7.328;2023-04-06T09:49:49;14.00;;;8.07;;
2326;SDS011;1174;51.588;7.328;2023-04-06T09:52:20;9.77;;;6.20;;
2326;SDS011;1174;51.588;7.328;2023-04-06T09:54:51;7.93;;;4.33;;
2326;SDS011;1174;51.588;7.328;2023-04-06T09:57:23;12.20;;;7.30;;
2326;SDS011;1174;51.588;7.328;2023-04-06T09:59:56;10.77;;;6.27;;
2326;SDS011;1174;51.588;7.328;2023-04-06T10:02:34;14.57;;;8.00;;
2326;SDS011;1174;51.588;7.328;2023-04-06T10:05:08;9.00;;;6.47;;
2326;SDS011;1174;51.588;7.328;2023-04-06T10:07:39;15.43;;;7.20;;
2326;SDS011;1174;51.588;7.328;2023-04-06T10:10:11;6.10;;;4.00;;
2326;SDS011;1174;51.588;7.328;2023-04-06T10:12:40;8.80;;;5.63;;
2326;SDS011;1174;51.588;7.328;2023-04-06T10:15:11;11.43;;;6.50;;
2326;SDS011;1174;51.588;7.328;2023-04-06T10:17:38;10.97;;;6.60;;
2326;SDS011;1174;51.588;7.328;2023-04-06T10:20:07;13.63;;;6.57;;
2326;SDS011;1174;51.588;7.328;2023-04-06T10:22:40;11.63;;;7.50;;
2326;SDS011;1174;51.588;7.328;2023-04-06T10:25:19;10.00;;;7.00;;
2326;SDS011;1174;51.588;7.328;2023-04-06T10:27:58;10.97;;;6.07;;
2326;SDS011;1174;51.588;7.328;2023-04-06T10:30:26;15.70;;;7.50;;
2326;SDS011;1174;51.588;7.328;2023-04-06T10:32:54;14.97;;;7.03;;
2326;SDS011;1174;51.588;7.328;2023-04-06T10:35:23;8.20;;;6.43;;
2326;SDS011;1174;51.588;7.328;2023-04-06T10:37:51;12.00;;;7.43;;
2326;SDS011;1174;51.588;7.328;2023-04-06T10:40:21;13.93;;;6.97;;
2326;SDS011;1174;51.588;7.328;2023-04-06T10:42:50;14.17;;;9.37;;
2326;SDS011;1174;51.588;7.328;2023-04-06T10:45:21;14.20;;;9.20;;
2326;SDS011;1174;51.588;7.328;2023-04-06T10:47:49;15.27;;;8.93;;
2326;SDS011;1174;51.588;7.328;2023-04-06T10:50:21;14.20;;;8.57;;
2326;SDS011;1174;51.588;7.328;2023-04-06T10:52:58;16.33;;;8.80;;
2326;SDS011;1174;51.588;7.328;2023-04-06T10:55:28;12.13;;;7.90;;
2326;SDS011;1174;51.588;7.328;2023-04-06T10:57:57;11.17;;;7.70;;
2326;SDS011;1174;51.588;7.328;2023-04-06T11:00:24;14.17;;;9.93;;
2326;SDS011;1174;51.588;7.328;2023-04-06T11:02:51;13.90;;;8.57;;
2326;SDS011;1174;51.588;7.328;2023-04-06T11:05:28;9.43;;;7.80;;
2326;SDS011;1174;51.588;7.328;2023-04-06T11:07:55;12.57;;;8.37;;
2326;SDS011;1174;51.588;7.328;2023-04-06T11:10:22;12.90;;;7.97;;
2326;SDS011;1174;51.588;7.328;2023-04-06T11:12:56;10.70;;;7.47;;
2326;SDS011;1174;51.588;7.328;2023-04-06T11:15:23;13.10;;;8.63;;
2326;SDS011;1174;51.588;7.328;2023-04-06T11:17:51;18.13;;;7.43;;
2326;SDS011;1174;51.588;7.328;2023-04-06T11:20:18;15.07;;;7.77;;
2326;SDS011;1174;51.588;7.328;2023-04-06T11:22:50;15.97;;;6.87;;
2326;SDS011;1174;51.588;7.328;2023-04-06T11:25:18;8.13;;;6.50;;
2326;SDS011;1174;51.588;7.328;2023-04-06T11:27:46;16.30;;;7.77;;
2326;SDS011;1174;51.588;7.328;2023-04-06T11:30:15;15.13;;;9.07;;
2326;SDS011;1174;51.588;7.328;2023-04-06T11:32:42;10.17;;;6.03;;
2326;SDS011;1174;51.588;7.328;2023-04-06T11:35:11;12.00;;;7.03;;
2326;SDS011;1174;51.588;7.328;2023-04-06T11:37:45;8.60;;;7.40;;
2326;SDS011;1174;51.588;7.328;2023-04-06T11:40:13;9.50;;;7.03;;
2326;SDS011;1174;51.588;7.328;2023-04-06T11:42:41;14.10;;;7.70;;
2326;SDS011;1174;51.588;7.328;2023-04-06T11:45:10;14.77;;;5.53;;
2326;SDS011;1174;51.588;7.328;2023-04-06T11:47:43;12.53;;;8.30;;
2326;SDS011;1174;51.588;7.328;2023-04-06T11:50:11;14.43;;;8.60;;
2326;SDS011;1174;51.588;7.328;2023-04-06T11:52:40;14.33;;;8.10;;
2326;SDS011;1174;51.588;7.328;2023-04-06T11:55:12;14.67;;;8.00;;
2326;SDS011;1174;51.588;7.328;2023-04-06T11:57:40;12.13;;;7.27;;
2326;SDS011;1174;51.588;7.328;2023-04-06T12:00:08;15.30;;;9.10;;
2326;SDS011;1174;51.588;7.328;2023-04-06T12:02:38;18.50;;;9.47;;
2326;SDS011;1174;51.588;7.328;2023-04-06T12:05:05;13.40;;;8.10;;
2326;SDS011;1174;51.588;7.328;2023-04-06T12:07:35;16.57;;;8.13;;
2326;SDS011;1174;51.588;7.328;2023-04-06T12:10:03;13.63;;;7.13;;
2326;SDS011;1174;51.588;7.328;2023-04-06T12:12:31;14.07;;;10.20;;
2326;SDS011;1174;51.588;7.328;2023-04-06T12:15:00;9.20;;;4.97;;
2326;SDS011;1174;51.588;7.328;2023-04-06T12:17:27;13.03;;;8.87;;
2326;SDS011;1174;51.588;7.328;2023-04-06T12:19:56;14.40;;;9.13;;
2326;SDS011;1174;51.588;7.328;2023-04-06T12:22:23;16.37;;;9.10;;
2326;SDS011;1174;51.588;7.328;2023-04-06T12:24:50;11.03;;;8.30;;
2326;SDS011;1174;51.588;7.328;2023-04-06T12:27:17;15.90;;;8.80;;
2326;SDS011;1174;51.588;7.328;2023-04-06T12:29:44;12.40;;;7.97;;
2326;SDS011;1174;51.588;7.328;2023-04-06T12:32:16;20.57;;;9.23;;
2326;SDS011;1174;51.588;7.328;2023-04-06T12:34:45;12.73;;;7.43;;
2326;SDS011;1174;51.588;7.328;2023-04-06T12:37:19;11.53;;;6.40;;
2326;SDS011;1174;51.588;7.328;2023-04-06T12:39:52;12.73;;;8.37;;
2326;SDS011;1174;51.588;7.328;2023-04-06T12:42:19;15.87;;;7.07;;
2326;SDS011;1174;51.588;7.328;2023-04-06T12:44:47;13.87;;;7.27;;
2326;SDS011;1174;51.588;7.328;2023-04-06T12:47:16;12.13;;;7.20;;
2326;SDS011;1174;51.588;7.328;2023-04-06T12:49:46;10.27;;;6.00;;
2326;SDS011;1174;51.588;7.328;2023-04-06T12:52:13;11.27;;;7.37;;
2326;SDS011;1174;51.588;7.328;2023-04-06T12:54:49;7.63;;;5.17;;
2326;SDS011;1174;51.588;7.328;2023-04-06T12:57:16;12.43;;;5.93;;
2326;SDS011;1174;51.588;7.328;2023-04-06T12:59:44;5.87;;;4.60;;
2326;SDS011;1174;51.588;7.328;2023-04-06T13:02:12;12.33;;;6.03;;
2326;SDS011;1174;51.588;7.328;2023-04-06T13:04:40;11.30;;;7.33;;
2326;SDS011;1174;51.588;7.328;2023-04-06T13:07:07;12.87;;;7.40;;
2326;SDS011;1174;51.588;7.328;2023-04-06T13:09:35;12.60;;;6.03;;
2326;SDS011;1174;51.588;7.328;2023-04-06T13:12:05;9.40;;;6.07;;
2326;SDS011;1174;51.588;7.328;2023-04-06T13:14:35;13.27;;;7.03;;
2326;SDS011;1174;51.588;7.328;2023-04-06T13:17:04;13.60;;;8.37;;
2326;SDS011;1174;51.588;7.328;2023-04-06T13:19:34;10.80;;;5.80;;
2326;SDS011;1174;51.588;7.328;2023-04-06T13:22:01;10.50;;;7.33;;
2326;SDS011;1174;51.588;7.328;2023-04-06T13:24:30;13.07;;;8.60;;
2326;SDS011;1174;51.588;7.328;2023-04-06T13:26:57;15.00;;;8.97;;
2326;SDS011;1174;51.588;7.328;2023-04-06T13:29:27;14.10;;;6.53;;
2326;SDS011;1174;51.588;7.328;2023-04-06T13:31:56;14.47;;;8.30;;
2326;SDS011;1174;51.588;7.328;2023-04-06T13:34:24;12.17;;;6.50;;
2326;SDS011;1174;51.588;7.328;2023-04-06T13:36:51;10.73;;;7.40;;
2326;SDS011;1174;51.588;7.328;2023-04-06T13:39:19;10.10;;;6.47;;
2326;SDS011;1174;51.588;7.328;2023-04-06T13:41:46;13.30;;;6.03;;
2326;SDS011;1174;51.588;7.328;2023-04-06T13:44:13;7.37;;;4.83;;
2326;SDS011;1174;51.588;7.328;2023-04-06T13:46:46;10.87;;;5.50;;
2326;SDS011;1174;51.588;7.328;2023-04-06T13:49:13;10.87;;;7.47;;
2326;SDS011;1174;51.588;7.328;2023-04-06T13:51:40;8.13;;;5.07;;
2326;SDS011;1174;51.588;7.328;2023-04-06T13:54:07;15.17;;;7.43;;
2326;SDS011;1174;51.588;7.328;2023-04-06T13:56:35;11.60;;;6.13;;
2326;SDS011;1174;51.588;7.328;2023-04-06T13:59:02;9.73;;;5.50;;
2326;SDS011;1174;51.588;7.328;2023-04-06T14:01:34;9.87;;;6.53;;
2326;SDS011;1174;51.588;7.328;2023-04-06T14:04:02;8.80;;;5.03;;
2326;SDS011;1174;51.588;7.328;2023-04-06T14:06:29;9.37;;;4.47;;
2326;SDS011;1174;51.588;7.328;2023-04-06T14:09:00;8.53;;;5.60;;
2326;SDS011;1174;51.588;7.328;2023-04-06T14:11:31;14.90;;;6.83;;
2326;SDS011;1174;51.588;7.328;2023-04-06T14:13:58;9.30;;;6.50;;
2326;SDS011;1174;51.588;7.328;2023-04-06T14:16:26;9.20;;;5.17;;
2326;SDS011;1174;51.588;7.328;2023-04-06T14:18:53;10.10;;;5.43;;
2326;SDS011;1174;51.588;7.328;2023-04-06T14:21:25;10.20;;;6.30;;
2326;SDS011;1174;51.588;7.328;2023-04-06T14:23:52;6.83;;;5.40;;
2326;SDS011;1174;51.588;7.328;2023-04-06T14:26:20;9.67;;;5.50;;
2326;SDS011;1174;51.588;7.328;2023-04-06T14:28:50;10.97;;;6.23;;
2326;SDS011;1174;51.588;7.328;2023-04-06T14:31:18;9.60;;;5.50;;
2326;SDS011;1174;51.588;7.328;2023-04-06T14:33:46;8.13;;;5.07;;
2326;SDS011;1174;51.588;7.328;2023-04-06T14:36:13;8.80;;;4.57;;
2326;SDS011;1174;51.588;7.328;2023-04-06T14:38:42;11.80;;;7.03;;
2326;SDS011;1174;51.588;7.328;2023-04-06T14:41:14;11.30;;;6.50;;
2326;SDS011;1174;51.588;7.328;2023-04-06T14:43:42;9.63;;;6.03;;
2326;SDS011;1174;51.588;7.328;2023-04-06T14:46:10;5.50;;;4.80;;
2326;SDS011;1174;51.588;7.328;2023-04-06T14:48:37;10.20;;;6.07;;
2326;SDS011;1174;51.588;7.328;2023-04-06T14:51:04;12.93;;;5.67;;
2326;SDS011;1174;51.588;7.328;2023-04-06T14:53:31;8.57;;;5.90;;
2326;SDS011;1174;51.588;7.328;2023-04-06T14:56:00;9.07;;;5.37;;
2326;SDS011;1174;51.588;7.328;2023-04-06T14:58:27;11.30;;;6.37;;
2326;SDS011;1174;51.588;7.328;2023-04-06T15:00:55;10.83;;;5.43;;
2326;SDS011;1174;51.588;7.328;2023-04-06T15:03:23;5.23;;;3.47;;
2326;SDS011;1174;51.588;7.328;2023-04-06T15:05:51;9.60;;;4.50;;
2326;SDS011;1174;51.588;7.328;2023-04-06T15:08:26;8.80;;;3.50;;
2326;SDS011;1174;51.588;7.328;2023-04-06T15:10:53;6.10;;;5.27;;
2326;SDS011;1174;51.588;7.328;2023-04-06T15:13:26;8.20;;;5.33;;
2326;SDS011;1174;51.588;7.328;2023-04-06T15:15:54;7.93;;;4.63;;